Time;durP1;ratioP1;P1;durP2;ratioP2;P2;SDS_P1;SDS_P2;PMS_P1;PMS_P2;Temp;Humidity;BMP_temperature;BMP_pressure;BME280_temperature;BME280_humidity;BME280_pressure;Samples;Min_cycle;Max_cycle;Signal;HPM_P1;HPM_P2
2022/01/19 00:02:04;;;;;;;11.70;8.43;;;5.10;99.90;;;;;;5013180;28;20056;-74
2022/01/19 00:04:31;;;;;;;17.50;9.02;;;5.10;99.90;;;;;;5031335;28;20053;-75
2022/01/19 00:06:58;;;;;;;13.88;9.23;;;5.10;99.90;;;;;;5018407;28;20050;-74
2022/01/19 00:09:26;;;;;;;16.27;10.23;;;5.10;99.90;;;;;;5030188;28;20136;-75
2022/01/19 00:11:53;;;;;;;20.17;10.80;;;5.10;99.90;;;;;;5030622;28;20085;-74
2022/01/19 00:14:20;;;;;;;16.80;11.18;;;5.10;99.90;;;;;;5012975;28;20056;-75
2022/01/19 00:16:47;;;;;;;13.25;9.70;;;5.10;99.90;;;;;;5030925;28;20049;-74
2022/01/19 00:19:14;;;;;;;15.50;9.13;;;5.10;99.90;;;;;;5046027;28;20489;-75
2022/01/19 00:21:41;;;;;;;14.20;8.95;;;5.10;99.90;;;;;;5046075;28;20060;-74
2022/01/19 00:24:08;;;;;;;14.88;9.13;;;5.10;99.90;;;;;;5045391;28;20488;-74
2022/01/19 00:26:35;;;;;;;12.23;8.43;;;5.10;99.90;;;;;;5046126;28;20111;-73
2022/01/19 00:29:02;;;;;;;11.27;8.55;;;5.10;99.90;;;;;;5034374;28;20049;-74
2022/01/19 00:31:29;;;;;;;11.38;7.93;;;5.10;99.90;;;;;;5024215;28;20054;-74
2022/01/19 00:33:56;;;;;;;12.02;7.68;;;5.00;99.90;;;;;;4994000;28;20084;-74
2022/01/19 00:36:23;;;;;;;10.27;7.32;;;4.90;99.90;;;;;;5034645;28;20064;-74
2022/01/19 00:38:50;;;;;;;7.68;5.80;;;4.90;99.90;;;;;;5016662;28;20061;-75
2022/01/19 00:41:17;;;;;;;11.73;6.85;;;4.90;99.90;;;;;;5016691;28;20053;-75
2022/01/19 00:43:44;;;;;;;7.20;5.70;;;4.80;99.90;;;;;;5033337;28;20064;-74
2022/01/19 00:46:12;;;;;;;7.72;5.47;;;4.80;99.90;;;;;;5000700;28;20404;-74
2022/01/19 00:48:41;;;;;;;8.90;5.88;;;4.80;99.90;;;;;;4998391;28;20451;-75
2022/01/19 00:51:08;;;;;;;7.85;5.43;;;4.80;99.90;;;;;;5000369;28;20104;-75
2022/01/19 00:53:35;;;;;;;6.90;4.93;;;4.80;99.90;;;;;;5015969;28;20054;-74
2022/01/19 00:56:02;;;;;;;9.40;5.15;;;4.80;99.90;;;;;;5015930;28;20045;-73
2022/01/19 00:58:29;;;;;;;6.82;5.25;;;4.90;99.90;;;;;;5016072;28;20049;-75
2022/01/19 01:00:56;;;;;;;9.20;5.90;;;4.90;99.90;;;;;;5033243;28;20408;-75
2022/01/19 01:03:23;;;;;;;7.30;4.85;;;4.90;99.90;;;;;;5050248;28;20084;-75
2022/01/19 01:05:50;;;;;;;9.98;6.35;;;4.90;99.90;;;;;;5033517;28;20049;-75
2022/01/19 01:08:17;;;;;;;13.60;8.07;;;4.90;99.90;;;;;;4999147;28;20060;-76
2022/01/19 01:10:45;;;;;;;6.53;4.68;;;5.00;99.90;;;;;;5015538;28;20046;-75
2022/01/19 01:13:23;;;;;;;10.57;5.85;;;5.00;99.90;;;;;;5015997;28;20049;-74
2022/01/19 01:16:03;;;;;;;9.43;5.63;;;5.00;99.90;;;;;;5017886;28;20057;-75
2022/01/19 01:18:31;;;;;;;9.52;6.13;;;5.00;99.90;;;;;;5015921;28;20145;-74
2022/01/19 01:20:59;;;;;;;8.40;5.30;;;5.00;99.90;;;;;;4999583;28;20408;-74
2022/01/19 01:23:27;;;;;;;11.27;7.05;;;5.00;99.90;;;;;;5015073;28;20048;-75
2022/01/19 01:25:54;;;;;;;11.40;6.93;;;5.10;99.90;;;;;;5032751;28;20051;-72
2022/01/19 01:28:21;;;;;;;8.05;5.45;;;5.10;99.90;;;;;;5015779;28;20060;-76
2022/01/19 01:30:50;;;;;;;9.00;5.75;;;5.10;99.90;;;;;;5032831;28;20136;-75
2022/01/19 01:33:17;;;;;;;9.73;5.80;;;5.10;99.90;;;;;;5043946;28;20084;-75
2022/01/19 01:35:44;;;;;;;9.57;5.57;;;5.10;99.90;;;;;;5032823;28;20047;-74
2022/01/19 01:38:11;;;;;;;9.57;6.38;;;5.10;99.90;;;;;;5032648;28;20041;-75
2022/01/19 01:40:58;;;;;;;6.93;5.32;;;5.10;99.90;;;;;;5017615;28;20041;-73
2022/01/19 01:43:25;;;;;;;7.63;5.43;;;5.10;99.90;;;;;;5015317;28;20049;-75
2022/01/19 01:45:59;;;;;;;7.78;5.00;;;5.20;99.90;;;;;;5032720;28;20060;-74
2022/01/19 01:48:26;;;;;;;9.52;5.65;;;5.20;99.90;;;;;;5000709;28;20053;-75
2022/01/19 01:53:38;;;;;;;11.98;6.97;;;5.20;99.90;;;;;;5017091;28;20056;-74
2022/01/19 01:56:08;;;;;;;10.27;6.38;;;5.20;99.90;;;;;;5032878;28;20072;-75
2022/01/19 01:58:39;;;;;;;10.15;7.13;;;5.20;99.90;;;;;;5046852;28;20507;-73
2022/01/19 02:01:07;;;;;;;7.85;6.05;;;5.20;99.90;;;;;;5013306;28;20499;-74
2022/01/19 02:03:38;;;;;;;7.65;5.75;;;5.20;99.90;;;;;;5024813;28;20046;-74
2022/01/19 02:21:37;;;;;;;12.93;7.40;;;5.20;99.90;;;;;;5031700;28;20385;-75
2022/01/19 02:22:13;;;;;;;8.75;6.22;;;5.20;99.90;;;;;;5028304;28;20042;-74
2022/01/19 02:24:44;;;;;;;9.65;6.18;;;5.20;99.90;;;;;;5014391;28;20049;-75
2022/01/19 02:41:15;;;;;;;8.93;5.80;;;5.30;99.90;;;;;;5016878;28;20045;-75
2022/01/19 02:43:46;;;;;;;9.40;5.25;;;5.30;99.90;;;;;;5031738;28;20061;-75
2022/01/19 02:49:18;;;;;;;6.72;4.63;;;5.30;99.90;;;;;;5031945;28;20056;-74
2022/01/19 02:51:49;;;;;;;8.13;5.00;;;5.30;99.90;;;;;;5023038;28;20091;-74
2022/01/19 02:54:22;;;;;;;8.48;5.93;;;5.30;99.90;;;;;;5004722;28;20053;-74
2022/01/19 02:56:55;;;;;;;6.63;4.30;;;5.30;99.90;;;;;;4997600;28;20112;-74
2022/01/19 03:10:11;;;;;;;5.00;3.38;;;5.30;99.90;;;;;;5015849;28;20044;-74
2022/01/19 03:12:38;;;;;;;6.18;3.47;;;5.30;99.90;;;;;;5031432;28;20179;-73
2022/01/19 03:15:07;;;;;;;5.00;3.60;;;5.30;99.90;;;;;;5031370;28;20594;-72
2022/01/19 03:17:34;;;;;;;5.90;3.33;;;5.30;99.90;;;;;;4997473;28;20045;-74
2022/01/19 03:20:01;;;;;;;7.55;4.53;;;5.30;99.90;;;;;;5030711;28;20369;-73
2022/01/19 03:22:35;;;;;;;5.22;3.58;;;5.30;99.90;;;;;;5029397;28;20067;-74
2022/01/19 03:25:03;;;;;;;6.95;4.03;;;5.30;99.90;;;;;;5013975;28;20041;-75
2022/01/19 03:27:29;;;;;;;7.07;4.10;;;5.30;99.90;;;;;;5030441;28;20053;-75
2022/01/19 03:29:56;;;;;;;7.00;5.05;;;5.30;99.90;;;;;;5031021;28;20051;-75
2022/01/19 03:32:25;;;;;;;5.65;4.03;;;5.30;99.90;;;;;;5013583;28;20053;-75
2022/01/19 03:34:52;;;;;;;6.72;4.70;;;5.30;99.90;;;;;;5009843;28;20042;-75
2022/01/19 03:37:18;;;;;;;5.53;3.92;;;5.30;99.90;;;;;;5028256;28;20052;-75
2022/01/19 03:39:45;;;;;;;6.82;4.32;;;5.30;99.90;;;;;;5024926;28;20053;-73
2022/01/19 03:42:12;;;;;;;6.28;4.38;;;5.30;99.90;;;;;;5010156;28;20077;-74
2022/01/19 03:44:40;;;;;;;5.38;3.88;;;5.40;99.90;;;;;;5028744;28;20991;-75
2022/01/19 03:47:07;;;;;;;5.82;3.88;;;5.40;99.90;;;;;;5013047;28;20128;-74
2022/01/19 03:49:36;;;;;;;6.82;4.28;;;5.40;99.90;;;;;;5030530;28;20057;-74
2022/01/19 03:52:05;;;;;;;5.35;4.20;;;5.30;99.90;;;;;;5030614;28;20057;-74
2022/01/19 03:54:36;;;;;;;6.07;3.83;;;5.40;99.90;;;;;;5013095;28;20052;-75
2022/01/19 03:57:03;;;;;;;6.78;4.22;;;5.40;99.90;;;;;;5013542;28;20063;-74
2022/01/19 03:59:30;;;;;;;8.23;5.43;;;5.40;99.90;;;;;;5030142;28;20041;-74
2022/01/19 04:01:58;;;;;;;6.93;4.40;;;5.40;99.90;;;;;;5032466;28;20041;-73
2022/01/19 04:07:00;;;;;;;6.47;4.40;;;5.40;99.90;;;;;;5018177;28;20049;-73
2022/01/19 04:09:27;;;;;;;6.50;4.30;;;5.40;99.90;;;;;;5017541;28;20073;-73
2022/01/19 04:11:54;;;;;;;7.43;4.30;;;5.40;99.90;;;;;;5016860;28;20507;-74
2022/01/19 04:14:22;;;;;;;6.97;4.30;;;5.40;99.90;;;;;;5035209;28;20084;-74
2022/01/19 04:16:50;;;;;;;7.47;4.57;;;5.50;99.90;;;;;;5017519;28;20050;-74
2022/01/19 04:19:27;;;;;;;11.18;5.57;;;5.50;99.90;;;;;;5017929;28;20120;-73
2022/01/19 04:21:55;;;;;;;9.73;5.10;;;5.50;99.90;;;;;;5034474;28;20856;-74
2022/01/19 04:24:22;;;;;;;8.75;4.90;;;5.50;99.90;;;;;;5017216;28;20121;-74
2022/01/19 04:26:58;;;;;;;7.07;4.45;;;5.50;99.90;;;;;;5017425;28;20507;-74
2022/01/19 04:29:25;;;;;;;6.53;4.78;;;5.50;99.90;;;;;;5019784;28;20050;-73
2022/01/19 04:31:52;;;;;;;7.43;5.10;;;5.60;99.90;;;;;;5029434;28;20051;-74
2022/01/19 04:34:20;;;;;;;7.15;4.97;;;5.60;99.90;;;;;;5034603;28;20056;-74
2022/01/19 04:37:19;;;;;;;7.80;5.30;;;5.60;99.90;;;;;;5034650;28;20045;-73
2022/01/19 05:06:27;;;;;;;6.22;4.60;;;5.70;99.90;;;;;;5017091;28;20099;-74
2022/01/19 05:09:05;;;;;;;7.78;4.78;;;5.70;99.90;;;;;;5034336;28;20045;-73
2022/01/19 05:14:19;;;;;;;7.45;4.10;;;5.70;99.90;;;;;;4988389;28;20042;-73
2022/01/19 05:16:46;;;;;;;6.28;4.50;;;5.70;99.90;;;;;;4998133;28;20038;-73
2022/01/19 05:19:13;;;;;;;7.18;4.53;;;5.70;99.90;;;;;;5016719;28;20053;-74
2022/01/19 05:21:40;;;;;;;7.05;4.28;;;5.70;99.90;;;;;;5034208;28;20057;-74
2022/01/19 05:24:07;;;;;;;7.68;4.45;;;5.70;99.90;;;;;;5015689;28;20044;-74
2022/01/19 05:26:37;;;;;;;9.18;5.03;;;5.70;99.90;;;;;;5016732;28;20052;-73
2022/01/19 05:29:04;;;;;;;6.18;4.50;;;5.80;99.90;;;;;;5016788;28;20045;-73
2022/01/19 05:31:31;;;;;;;7.05;4.43;;;5.80;99.90;;;;;;5016460;28;20113;-73
2022/01/19 05:33:58;;;;;;;7.15;4.53;;;5.80;99.90;;;;;;5029265;28;20827;-73
2022/01/19 05:36:25;;;;;;;7.43;4.55;;;5.80;99.90;;;;;;5033420;28;20064;-73
2022/01/19 05:38:52;;;;;;;6.40;3.90;;;5.80;99.90;;;;;;5026723;28;20045;-73
2022/01/19 05:41:20;;;;;;;10.02;5.38;;;5.90;99.90;;;;;;5032661;28;20053;-73
2022/01/19 05:43:47;;;;;;;5.18;3.72;;;5.90;99.90;;;;;;5012013;28;20054;-73
2022/01/19 05:46:14;;;;;;;5.70;4.53;;;5.90;99.90;;;;;;5013886;28;20050;-72
2022/01/19 05:48:41;;;;;;;6.03;3.53;;;5.90;99.90;;;;;;5004745;28;20082;-73
2022/01/19 05:51:09;;;;;;;6.50;3.53;;;5.90;99.90;;;;;;5014027;28;20050;-71
2022/01/19 05:53:36;;;;;;;5.88;3.55;;;5.90;99.90;;;;;;5013440;28;20053;-72
2022/01/19 05:56:03;;;;;;;4.63;3.75;;;6.00;99.90;;;;;;5013262;28;20054;-73
2022/01/19 05:58:30;;;;;;;4.20;2.90;;;6.00;99.90;;;;;;5012252;28;20077;-73
2022/01/19 06:00:57;;;;;;;5.95;3.45;;;6.00;99.90;;;;;;5004264;28;20125;-73
2022/01/19 06:03:24;;;;;;;7.43;3.70;;;6.00;99.90;;;;;;5006787;28;20061;-71
2022/01/19 06:05:51;;;;;;;5.13;4.00;;;6.00;99.90;;;;;;5007843;28;20474;-73
2022/01/19 06:08:39;;;;;;;4.57;3.28;;;6.00;99.90;;;;;;5008900;28;20125;-73
2022/01/19 06:11:05;;;;;;;5.55;3.20;;;6.00;99.90;;;;;;5010608;28;20049;-72
2022/01/19 06:13:32;;;;;;;5.82;3.45;;;6.00;99.90;;;;;;4995741;28;20055;-73
2022/01/19 06:15:59;;;;;;;5.70;3.40;;;6.10;99.90;;;;;;5012937;28;20100;-73
2022/01/19 06:18:26;;;;;;;6.30;3.63;;;6.10;99.90;;;;;;5012001;28;20089;-73
2022/01/19 06:20:53;;;;;;;7.03;3.63;;;6.10;99.90;;;;;;4995705;28;20053;-73
2022/01/19 06:23:20;;;;;;;4.35;2.97;;;6.10;99.90;;;;;;5019997;28;20053;-73
2022/01/19 06:25:47;;;;;;;4.35;3.17;;;6.10;99.90;;;;;;5002847;28;20075;-73
2022/01/19 06:28:14;;;;;;;7.13;3.17;;;6.10;99.90;;;;;;5004832;28;20127;-73
2022/01/19 06:30:41;;;;;;;6.88;3.10;;;6.10;99.90;;;;;;5011881;28;20038;-73
2022/01/19 06:33:08;;;;;;;4.90;3.33;;;6.10;99.90;;;;;;5012521;28;20042;-73
2022/01/19 06:35:38;;;;;;;4.80;3.10;;;6.10;99.90;;;;;;4985443;28;20049;-73
2022/01/19 06:38:05;;;;;;;4.65;3.58;;;6.10;99.90;;;;;;5012419;28;20041;-73
2022/01/19 06:40:32;;;;;;;5.85;3.05;;;6.10;99.90;;;;;;4994646;28;20060;-73
2022/01/19 06:42:59;;;;;;;4.45;2.80;;;6.00;99.90;;;;;;4997000;28;20145;-73
2022/01/19 06:45:27;;;;;;;8.77;5.25;;;6.10;99.90;;;;;;5008404;28;20081;-76
2022/01/19 06:47:56;;;;;;;;;;;6.10;99.90;;;;;;5006307;28;20045;-73
2022/01/19 06:50:36;;;;;;;20.75;11.85;;;6.10;99.90;;;;;;5028312;28;19973;-72
2022/01/19 06:53:03;;;;;;;123.95;94.35;;;6.10;99.90;;;;;;5031019;28;20057;-72
2022/01/19 06:55:31;;;;;;;55.78;37.13;;;6.10;99.90;;;;;;5017711;28;20133;-72
2022/01/19 06:57:58;;;;;;;38.83;24.38;;;6.10;99.90;;;;;;5018786;28;20045;-76
2022/01/19 07:00:25;;;;;;;31.90;19.27;;;6.10;99.90;;;;;;5040588;28;20366;-75
2022/01/19 07:02:53;;;;;;;19.95;13.13;;;6.10;99.90;;;;;;5027462;28;20121;-73
2022/01/19 07:05:20;;;;;;;19.95;10.73;;;6.10;99.90;;;;;;5019581;28;20128;-77
2022/01/19 07:07:47;;;;;;;11.93;8.07;;;6.00;99.90;;;;;;5020933;28;20049;-75
2022/01/19 07:10:14;;;;;;;9.57;6.43;;;6.00;99.90;;;;;;4982328;28;20045;-75
2022/01/19 07:12:41;;;;;;;6.95;5.05;;;6.00;99.90;;;;;;4994789;28;20060;-72
2022/01/19 07:15:08;;;;;;;9.13;4.80;;;6.00;99.90;;;;;;5006590;28;20050;-75
2022/01/19 07:17:35;;;;;;;10.02;6.55;;;6.10;99.90;;;;;;4994629;28;20431;-75
2022/01/19 07:20:03;;;;;;;20.38;11.50;;;6.10;99.90;;;;;;4986815;28;20145;-77
2022/01/19 07:22:30;;;;;;;11.35;7.65;;;6.20;99.90;;;;;;4991749;28;20049;-73
2022/01/19 07:24:59;;;;;;;9.68;6.47;;;6.20;99.90;;;;;;5027795;28;20137;-74
2022/01/19 07:27:26;;;;;;;8.23;4.90;;;6.20;99.90;;;;;;4995536;28;20089;-74
2022/01/19 07:29:53;;;;;;;11.40;5.28;;;6.20;99.90;;;;;;5011804;28;20050;-72
2022/01/19 07:32:22;;;;;;;8.32;4.57;;;6.20;99.90;;;;;;4980210;28;20050;-74
2022/01/19 07:34:49;;;;;;;7.63;4.90;;;6.20;99.90;;;;;;5011205;28;20378;-74
2022/01/19 07:37:16;;;;;;;7.75;4.72;;;6.20;99.90;;;;;;5010440;28;20545;-74
2022/01/19 07:39:43;;;;;;;6.18;4.15;;;6.20;99.90;;;;;;4978666;28;20058;-75
2022/01/19 07:42:10;;;;;;;8.10;4.32;;;6.30;99.90;;;;;;4994906;28;20042;-75
2022/01/19 07:44:39;;;;;;;7.22;4.10;;;6.30;99.90;;;;;;5027263;28;20061;-74
2022/01/19 07:47:06;;;;;;;7.28;4.32;;;6.30;99.90;;;;;;5014263;28;20046;-74
2022/01/19 07:49:33;;;;;;;5.82;3.50;;;6.40;99.90;;;;;;5026684;28;20048;-73
2022/01/19 07:52:00;;;;;;;7.63;3.78;;;6.40;99.90;;;;;;5014333;28;20064;-74
2022/01/19 07:54:27;;;;;;;6.03;3.80;;;6.40;99.90;;;;;;5014212;28;20048;-75
2022/01/19 07:56:54;;;;;;;8.32;4.20;;;6.40;99.90;;;;;;5030415;28;20412;-74
2022/01/19 07:59:21;;;;;;;6.00;3.72;;;6.30;99.90;;;;;;5013064;28;20417;-74
2022/01/19 08:01:48;;;;;;;5.55;3.53;;;6.30;99.90;;;;;;5013316;28;20128;-75
2022/01/19 08:04:15;;;;;;;5.82;3.90;;;6.30;99.90;;;;;;5029318;28;20048;-74
2022/01/19 08:06:42;;;;;;;7.95;3.97;;;6.30;99.90;;;;;;4995403;28;20069;-75
2022/01/19 08:09:09;;;;;;;7.18;5.10;;;6.30;99.90;;;;;;5030598;28;20044;-73
2022/01/19 08:11:36;;;;;;;5.13;3.75;;;6.30;99.90;;;;;;5013509;28;20128;-74
2022/01/19 08:14:07;;;;;;;6.18;4.25;;;6.20;99.90;;;;;;5014799;28;20045;-72
2022/01/19 08:16:34;;;;;;;7.20;4.72;;;6.20;99.90;;;;;;5013970;28;20046;-72
2022/01/19 08:19:01;;;;;;;8.05;4.60;;;6.20;99.90;;;;;;5031744;28;20049;-74
2022/01/19 08:21:32;;;;;;;8.30;4.75;;;6.20;99.90;;;;;;5031936;28;20080;-76
2022/01/19 08:23:59;;;;;;;7.95;5.45;;;6.10;99.90;;;;;;5013249;28;20132;-74
2022/01/19 08:26:26;;;;;;;6.15;4.40;;;6.10;99.90;;;;;;5036511;28;20060;-74
2022/01/19 08:28:53;;;;;;;6.38;5.00;;;6.10;99.90;;;;;;5030774;28;20052;-76
2022/01/19 08:31:20;;;;;;;7.32;4.75;;;6.10;99.90;;;;;;5026109;28;20124;-73
2022/01/19 08:33:47;;;;;;;10.13;6.47;;;6.10;99.90;;;;;;5029052;28;20471;-73
2022/01/19 08:36:16;;;;;;;9.48;4.50;;;6.10;99.90;;;;;;5030020;28;20041;-70
2022/01/19 08:38:43;;;;;;;7.25;4.55;;;6.00;99.90;;;;;;5016978;28;20427;-71
2022/01/19 08:41:11;;;;;;;6.63;5.03;;;6.00;99.90;;;;;;5008111;28;20048;-75
2022/01/19 08:43:38;;;;;;;11.43;6.40;;;6.00;99.90;;;;;;5024901;28;20054;-75
2022/01/19 08:46:05;;;;;;;36.50;22.80;;;6.00;99.90;;;;;;5007422;28;20046;-75
2022/01/19 08:48:32;;;;;;;16.38;11.55;;;6.00;99.90;;;;;;4993982;28;20046;-72
2022/01/19 08:50:59;;;;;;;14.25;8.70;;;6.00;99.90;;;;;;4997974;28;20050;-72
2022/01/19 08:53:26;;;;;;;10.85;7.13;;;6.00;99.90;;;;;;4997340;28;20058;-75
2022/01/19 08:55:56;;;;;;;12.73;7.30;;;6.10;99.90;;;;;;5011305;28;20050;-73
2022/01/19 08:58:23;;;;;;;12.82;7.50;;;6.10;99.90;;;;;;4996411;28;20573;-74
2022/01/19 09:00:50;;;;;;;9.60;6.80;;;6.20;99.90;;;;;;4977522;28;20054;-72
2022/01/19 09:03:18;;;;;;;10.02;6.60;;;6.20;99.90;;;;;;4986491;28;20103;-73
2022/01/19 09:05:45;;;;;;;8.57;5.85;;;6.20;99.90;;;;;;5027680;28;20129;-72
2022/01/19 09:08:13;;;;;;;12.13;6.82;;;6.20;99.90;;;;;;5011059;28;20045;-74
2022/01/19 09:10:41;;;;;;;11.15;5.70;;;6.20;99.90;;;;;;5008126;28;20065;-76
2022/01/19 09:13:09;;;;;;;12.35;6.00;;;6.20;99.90;;;;;;4997140;28;20080;-75
2022/01/19 09:15:36;;;;;;;10.70;6.03;;;6.20;99.90;;;;;;5004052;28;20054;-70
2022/01/19 09:18:03;;;;;;;9.23;6.82;;;6.20;99.90;;;;;;5011273;28;20584;-73
2022/01/19 09:20:30;;;;;;;43.45;32.53;;;6.20;99.90;;;;;;4998305;28;20050;-72
2022/01/19 09:22:57;;;;;;;26.40;19.95;;;6.30;99.90;;;;;;5011293;28;20050;-69
2022/01/19 09:25:24;;;;;;;29.98;24.00;;;6.30;99.90;;;;;;5026909;28;20056;-70
2022/01/19 09:27:51;;;;;;;25.00;17.60;;;6.40;99.90;;;;;;4996872;28;20102;-73
2022/01/19 09:30:21;;;;;;;23.02;13.23;;;6.40;99.90;;;;;;5014620;28;20104;-76
2022/01/19 09:32:56;;;;;;;16.38;10.05;;;6.50;99.90;;;;;;5013684;28;20553;-71
2022/01/19 09:35:25;;;;;;;12.15;8.68;;;6.50;99.90;;;;;;5014889;28;20049;-71
2022/01/19 09:37:52;;;;;;;10.38;7.40;;;6.50;99.90;;;;;;5006658;28;20050;-71
2022/01/19 09:40:28;;;;;;;13.13;8.38;;;6.60;99.90;;;;;;5000907;28;20482;-71
2022/01/19 09:43:07;;;;;;;8.68;5.93;;;6.70;99.90;;;;;;5016097;28;20088;-70
2022/01/19 09:45:34;;;;;;;7.70;5.78;;;6.70;99.90;;;;;;5033450;28;20095;-70
2022/01/19 09:48:01;;;;;;;6.55;5.45;;;6.70;99.90;;;;;;5015766;28;20049;-70
2022/01/19 09:50:28;;;;;;;10.15;5.60;;;6.80;99.90;;;;;;5015987;28;20054;-70
2022/01/19 09:52:55;;;;;;;10.38;6.50;;;6.80;99.90;;;;;;5000306;28;20052;-70
2022/01/19 09:55:22;;;;;;;11.20;6.68;;;6.90;99.90;;;;;;5015174;28;20053;-70
2022/01/19 09:57:49;;;;;;;11.77;5.88;;;7.00;99.90;;;;;;5000239;28;20132;-70
2022/01/19 10:00:16;;;;;;;10.65;6.18;;;7.00;99.90;;;;;;4983046;28;20118;-70
2022/01/19 10:02:43;;;;;;;9.15;6.40;;;7.10;99.90;;;;;;5033039;28;20050;-70
2022/01/19 10:05:10;;;;;;;9.77;6.20;;;7.20;99.90;;;;;;5032128;28;20496;-70
2022/01/19 10:07:37;;;;;;;8.90;5.82;;;7.20;99.90;;;;;;4996663;28;20104;-69
2022/01/19 10:10:07;;;;;;;9.82;6.05;;;7.20;99.90;;;;;;5013025;28;20054;-70
2022/01/19 10:18:16;;;;;;;8.13;5.10;;;7.40;99.90;;;;;;5012868;28;20173;-70
2022/01/19 10:20:45;;;;;;;7.68;5.95;;;7.40;99.90;;;;;;4996252;28;20453;-70
2022/01/19 10:23:36;;;;;;;8.77;5.53;;;7.40;99.90;;;;;;4993121;28;20059;-70
2022/01/19 10:26:04;;;;;;;8.43;6.03;;;7.50;99.90;;;;;;5014047;28;20068;-70
2022/01/19 10:28:32;;;;;;;6.25;4.65;;;7.50;99.90;;;;;;5021859;28;20132;-69
2022/01/19 10:31:00;;;;;;;7.32;4.75;;;7.60;99.90;;;;;;5010957;28;20120;-70
2022/01/19 10:33:27;;;;;;;64.00;49.85;;;7.60;99.90;;;;;;4997172;28;20046;-72
2022/01/19 10:35:57;;;;;;;107.38;78.57;;;7.60;99.90;;;;;;5027948;28;20377;-71
2022/01/19 10:38:29;;;;;;;40.55;28.63;;;7.70;99.90;;;;;;5012269;28;20053;-71
2022/01/19 10:41:06;;;;;;;27.50;18.90;;;7.70;99.90;;;;;;5015536;28;20041;-71
2022/01/19 10:43:36;;;;;;;22.13;14.55;;;7.70;99.90;;;;;;5014030;28;20076;-71
2022/01/19 10:46:23;;;;;;;15.00;11.05;;;7.70;99.90;;;;;;5031963;28;20053;-71
2022/01/19 10:49:01;;;;;;;12.73;9.75;;;7.70;99.90;;;;;;4998834;28;20041;-71
2022/01/19 10:51:30;;;;;;;12.30;7.33;;;7.70;99.90;;;;;;5032726;28;20560;-71
2022/01/19 10:54:16;;;;;;;8.87;7.17;;;7.70;99.90;;;;;;5015666;28;20095;-70
2022/01/19 10:56:48;;;;;;;12.88;8.13;;;7.60;99.90;;;;;;5032023;28;20047;-71
2022/01/19 10:59:17;;;;;;;8.13;6.22;;;7.60;99.90;;;;;;5032498;28;20497;-71
2022/01/19 11:01:51;;;;;;;6.68;5.13;;;7.60;99.90;;;;;;5015221;28;20053;-71
2022/01/19 11:04:22;;;;;;;10.65;5.47;;;7.60;99.90;;;;;;5030571;28;20091;-71
2022/01/19 11:07:12;;;;;;;10.13;5.97;;;7.50;99.90;;;;;;5003176;28;20583;-71
2022/01/19 11:09:45;;;;;;;9.27;5.47;;;7.50;99.90;;;;;;5026884;28;20099;-71
2022/01/19 11:12:16;;;;;;;11.98;5.82;;;7.50;99.90;;;;;;5014629;28;20053;-71
2022/01/19 11:14:43;;;;;;;9.55;6.10;;;7.60;99.90;;;;;;5032140;28;20045;-71
2022/01/19 11:17:30;;;;;;;9.95;7.07;;;7.60;99.90;;;;;;5011880;28;20072;-71
2022/01/19 11:20:00;;;;;;;8.65;5.97;;;7.60;99.90;;;;;;5012782;28;20054;-70
2022/01/19 11:22:36;;;;;;;8.57;5.88;;;7.60;99.90;;;;;;4995353;28;20052;-71
2022/01/19 11:25:22;;;;;;;7.60;5.75;;;7.70;99.90;;;;;;5012542;28;20046;-71
2022/01/19 11:28:09;;;;;;;9.40;5.32;;;7.70;99.90;;;;;;5001695;28;20151;-70
2022/01/19 11:30:36;;;;;;;8.82;5.15;;;7.70;99.90;;;;;;5032314;28;20088;-70
2022/01/19 11:33:28;;;;;;;9.65;6.20;;;7.80;99.90;;;;;;5003801;28;20045;-71
2022/01/19 11:36:04;;;;;;;7.38;5.45;;;7.80;99.90;;;;;;5028249;28;20041;-71
2022/01/19 11:38:45;;;;;;;7.40;5.43;;;7.80;99.90;;;;;;5014586;28;20140;-71
2022/01/19 11:41:17;;;;;;;10.48;5.85;;;7.90;99.90;;;;;;4999118;28;20108;-70
2022/01/19 11:43:52;;;;;;;6.53;5.80;;;7.90;99.90;;;;;;5031654;28;20145;-71
2022/01/19 11:46:27;;;;;;;8.82;5.75;;;8.00;99.90;;;;;;5017986;28;20444;-72
2022/01/19 11:48:54;;;;;;;9.15;5.70;;;8.10;99.90;;;;;;5015766;28;20121;-72
2022/01/19 11:51:31;;;;;;;20.13;14.75;;;8.20;99.90;;;;;;5041768;28;20136;-69
2022/01/19 11:54:02;;;;;;;37.83;27.63;;;8.30;99.90;;;;;;5013825;28;20128;-70
2022/01/19 11:56:30;;;;;;;17.60;12.52;;;8.30;99.90;;;;;;4996977;28;20086;-72
2022/01/19 11:59:06;;;;;;;16.15;11.20;;;8.40;99.90;;;;;;5017955;28;20053;-69
2022/01/19 12:01:33;;;;;;;12.10;8.60;;;8.40;99.90;;;;;;5014459;28;20053;-69
2022/01/19 12:04:20;;;;;;;13.60;7.95;;;8.50;99.90;;;;;;5017680;28;20045;-70
2022/01/19 12:06:47;;;;;;;9.63;6.57;;;8.60;99.90;;;;;;5010976;28;20446;-71
2022/01/19 12:09:15;;;;;;;8.05;5.88;;;8.70;99.90;;;;;;5030753;28;20064;-71
2022/01/19 12:11:50;;;;;;;9.10;5.05;;;8.80;99.90;;;;;;5029824;28;20068;-67
2022/01/19 12:19:28;;;;;;;10.50;6.05;;;9.10;99.90;;;;;;5024119;28;20049;-70
2022/01/19 12:22:12;;;;;;;8.18;5.18;;;9.20;99.90;;;;;;5031792;28;20041;-72
2022/01/19 12:24:44;;;;;;;10.60;5.65;;;9.30;99.90;;;;;;5026481;28;20064;-70
2022/01/19 12:27:15;;;;;;;5.55;4.47;;;9.30;99.90;;;;;;5017768;28;20057;-70
2022/01/19 12:30:05;;;;;;;8.27;5.15;;;9.40;99.90;;;;;;5017514;28;20081;-70
2022/01/19 12:32:48;;;;;;;6.90;5.07;;;9.40;99.90;;;;;;5035270;28;20064;-71
2022/01/19 12:35:23;;;;;;;8.40;5.63;;;9.50;99.90;;;;;;5023063;28;20056;-71
2022/01/19 12:37:55;;;;;;;45.47;39.58;;;9.60;99.90;;;;;;4982050;28;20062;-75
2022/01/19 12:40:24;;;;;;;16.45;14.63;;;9.60;99.90;;;;;;5016185;28;20076;-72
2022/01/19 12:42:54;;;;;;;10.43;8.50;;;9.60;99.90;;;;;;5045114;28;20049;-75
2022/01/19 12:45:27;;;;;;;39.13;30.70;;;9.60;99.90;;;;;;4999284;28;20050;-70
2022/01/19 12:47:55;;;;;;;19.92;16.92;;;9.60;99.90;;;;;;5006240;28;20053;-71
2022/01/19 12:50:29;;;;;;;15.00;11.10;;;9.60;99.90;;;;;;5001971;28;20547;-70
2022/01/19 12:52:58;;;;;;;11.02;8.35;;;9.60;99.90;;;;;;5013605;28;20073;-70
2022/01/19 12:55:30;;;;;;;8.83;6.87;;;9.70;99.90;;;;;;4996061;28;20058;-70
2022/01/19 12:57:57;;;;;;;10.13;6.13;;;9.70;99.90;;;;;;5028772;28;20056;-69
2022/01/19 13:00:31;;;;;;;8.80;6.13;;;9.70;99.90;;;;;;4997052;28;20057;-70
2022/01/19 13:02:58;;;;;;;6.95;5.32;;;9.60;99.90;;;;;;5018086;28;20081;-70
2022/01/19 13:05:29;;;;;;;7.60;6.10;;;9.60;99.90;;;;;;5015029;28;20121;-70
2022/01/19 13:08:01;;;;;;;6.07;4.35;;;9.60;99.90;;;;;;4997706;28;20052;-70
2022/01/19 13:10:42;;;;;;;6.55;4.72;;;9.60;99.90;;;;;;5029556;28;20503;-69
2022/01/19 13:13:18;;;;;;;8.77;4.75;;;9.60;99.90;;;;;;5015095;28;20050;-70
2022/01/19 13:15:53;;;;;;;6.05;4.40;;;9.60;99.90;;;;;;5014706;28;20144;-70
2022/01/19 13:18:42;;;;;;;7.05;5.43;;;9.70;99.90;;;;;;5013435;28;20100;-70
2022/01/19 13:21:18;;;;;;;8.07;4.25;;;9.70;99.90;;;;;;5029241;28;20501;-70
2022/01/19 13:23:55;;;;;;;5.57;4.10;;;9.70;99.90;;;;;;5013203;28;20137;-70
2022/01/19 13:26:22;;;;;;;5.68;4.03;;;9.70;99.90;;;;;;4996507;28;20050;-73
2022/01/19 13:28:49;;;;;;;4.93;3.60;;;9.70;99.90;;;;;;5012943;28;20042;-70
2022/01/19 13:31:21;;;;;;;5.10;4.38;;;9.70;99.90;;;;;;4996703;28;20038;-71
2022/01/19 13:33:56;;;;;;;6.78;5.40;;;9.60;99.90;;;;;;5005912;28;20046;-71
2022/01/19 13:36:28;;;;;;;9.57;7.18;;;9.60;99.90;;;;;;5006739;28;20084;-70
2022/01/19 13:38:55;;;;;;;530.28;340.25;;;9.60;99.90;;;;;;5029738;28;20468;-71
2022/01/19 13:41:22;;;;;;;203.68;146.18;;;9.50;99.90;;;;;;4996267;28;20481;-70
2022/01/19 13:43:50;;;;;;;137.20;95.72;;;9.50;99.90;;;;;;4997475;28;20553;-71
2022/01/19 13:46:25;;;;;;;92.40;59.47;;;9.40;99.90;;;;;;4995605;28;20473;-70
2022/01/19 13:49:10;;;;;;;49.58;31.25;;;9.30;99.90;;;;;;5011563;28;20555;-70
2022/01/19 13:51:44;;;;;;;30.88;21.88;;;9.20;99.90;;;;;;5002727;28;20109;-70
2022/01/19 13:54:11;;;;;;;26.88;19.45;;;9.10;99.90;;;;;;4992437;28;20050;-70
2022/01/19 13:56:41;;;;;;;23.45;15.15;;;9.00;99.90;;;;;;4992741;28;20054;-71
2022/01/19 13:59:17;;;;;;;15.98;11.75;;;9.00;99.90;;;;;;5002961;28;20516;-71
2022/01/19 14:01:56;;;;;;;13.73;8.75;;;8.90;99.90;;;;;;5006043;28;20090;-71
2022/01/19 14:04:27;;;;;;;10.10;7.53;;;8.90;99.90;;;;;;4991596;28;20133;-70
2022/01/19 14:07:12;;;;;;;8.95;6.90;;;8.90;99.90;;;;;;5004816;28;20121;-70
2022/01/19 14:09:40;;;;;;;9.50;6.95;;;8.90;99.90;;;;;;4991839;28;20503;-70
2022/01/19 14:12:11;;;;;;;9.65;6.32;;;8.90;99.90;;;;;;4991218;28;20065;-70
2022/01/19 14:14:41;;;;;;;7.50;5.75;;;8.90;99.90;;;;;;4991349;28;20086;-70
2022/01/19 14:17:12;;;;;;;6.00;4.47;;;8.90;99.90;;;;;;4999056;28;20054;-71
2022/01/19 14:19:43;;;;;;;6.40;5.22;;;8.90;99.90;;;;;;5010765;28;20184;-70
2022/01/19 14:22:13;;;;;;;8.00;5.65;;;8.90;99.90;;;;;;4991270;28;20130;-70
2022/01/19 14:24:49;;;;;;;8.43;5.43;;;9.00;99.90;;;;;;5007384;28;20243;-70
2022/01/19 14:27:38;;;;;;;11.77;5.03;;;9.00;99.90;;;;;;4995888;28;20544;-71
2022/01/19 14:30:08;;;;;;;7.05;4.90;;;9.00;99.90;;;;;;5027213;28;20045;-71
2022/01/19 14:32:44;;;;;;;5.88;4.90;;;9.00;99.90;;;;;;5010474;28;20164;-72
2022/01/19 14:35:26;;;;;;;33.03;26.30;;;9.00;99.90;;;;;;5012480;28;20050;-67